sensor_id;sensor_type;location;lat;lon;timestamp;P1;durP1;ratioP1;P2;durP2;ratioP2
25079;SDS011;13071;48.868;9.996;2022-12-10T00:00:23;24.80;;;9.00;;
25079;SDS011;13071;48.868;9.996;2022-12-10T00:02:50;22.92;;;8.23;;
25079;SDS011;13071;48.868;9.996;2022-12-10T00:05:18;28.33;;;9.77;;
25079;SDS011;13071;48.868;9.996;2022-12-10T00:07:45;27.25;;;9.00;;
25079;SDS011;13071;48.868;9.996;2022-12-10T00:10:11;25.40;;;9.10;;
25079;SDS011;13071;48.868;9.996;2022-12-10T00:12:38;25.00;;;9.05;;
25079;SDS011;13071;48.868;9.996;2022-12-10T00:15:05;27.85;;;9.40;;
25079;SDS011;13071;48.868;9.996;2022-12-10T00:17:32;28.88;;;9.27;;
25079;SDS011;13071;48.868;9.996;2022-12-10T00:19:59;25.55;;;9.38;;
25079;SDS011;13071;48.868;9.996;2022-12-10T00:22:27;24.23;;;9.07;;
25079;SDS011;13071;48.868;9.996;2022-12-10T00:24:53;26.60;;;8.70;;
25079;SDS011;13071;48.868;9.996;2022-12-10T00:27:20;22.42;;;9.57;;
25079;SDS011;13071;48.868;9.996;2022-12-10T00:29:47;22.88;;;9.07;;
25079;SDS011;13071;48.868;9.996;2022-12-10T00:32:13;23.95;;;9.20;;
25079;SDS011;13071;48.868;9.996;2022-12-10T00:34:40;23.02;;;7.75;;
25079;SDS011;13071;48.868;9.996;2022-12-10T00:37:07;23.58;;;8.73;;
25079;SDS011;13071;48.868;9.996;2022-12-10T00:39:35;26.83;;;8.75;;
25079;SDS011;13071;48.868;9.996;2022-12-10T00:42:02;21.92;;;8.68;;
25079;SDS011;13071;48.868;9.996;2022-12-10T00:44:29;30.05;;;9.50;;
25079;SDS011;13071;48.868;9.996;2022-12-10T00:46:55;23.88;;;8.30;;
25079;SDS011;13071;48.868;9.996;2022-12-10T00:49:22;31.88;;;9.45;;
25079;SDS011;13071;48.868;9.996;2022-12-10T00:51:49;30.30;;;9.43;;
25079;SDS011;13071;48.868;9.996;2022-12-10T00:54:16;25.48;;;9.32;;
25079;SDS011;13071;48.868;9.996;2022-12-10T00:56:44;26.63;;;9.43;;
25079;SDS011;13071;48.868;9.996;2022-12-10T00:59:12;21.05;;;7.68;;
25079;SDS011;13071;48.868;9.996;2022-12-10T01:01:40;18.35;;;7.78;;
25079;SDS011;13071;48.868;9.996;2022-12-10T01:04:08;23.52;;;8.27;;
25079;SDS011;13071;48.868;9.996;2022-12-10T01:06:37;23.27;;;8.00;;
25079;SDS011;13071;48.868;9.996;2022-12-10T01:09:09;24.70;;;9.13;;
25079;SDS011;13071;48.868;9.996;2022-12-10T01:11:38;28.13;;;8.45;;
25079;SDS011;13071;48.868;9.996;2022-12-10T01:14:08;26.63;;;9.10;;
25079;SDS011;13071;48.868;9.996;2022-12-10T01:16:36;20.42;;;7.82;;
25079;SDS011;13071;48.868;9.996;2022-12-10T01:19:03;23.65;;;8.10;;
25079;SDS011;13071;48.868;9.996;2022-12-10T01:21:30;21.02;;;8.90;;
25079;SDS011;13071;48.868;9.996;2022-12-10T01:23:57;20.67;;;8.60;;
25079;SDS011;13071;48.868;9.996;2022-12-10T01:26:25;27.40;;;9.05;;
25079;SDS011;13071;48.868;9.996;2022-12-10T01:28:53;25.27;;;8.88;;
25079;SDS011;13071;48.868;9.996;2022-12-10T01:31:22;26.20;;;8.50;;
25079;SDS011;13071;48.868;9.996;2022-12-10T01:33:51;20.42;;;8.32;;
25079;SDS011;13071;48.868;9.996;2022-12-10T01:36:18;26.73;;;9.02;;
25079;SDS011;13071;48.868;9.996;2022-12-10T01:38:46;21.13;;;7.93;;
25079;SDS011;13071;48.868;9.996;2022-12-10T01:41:14;28.02;;;9.25;;
25079;SDS011;13071;48.868;9.996;2022-12-10T01:43:52;23.92;;;8.88;;
25079;SDS011;13071;48.868;9.996;2022-12-10T01:46:23;21.85;;;8.73;;
25079;SDS011;13071;48.868;9.996;2022-12-10T01:48:51;29.40;;;9.75;;
25079;SDS011;13071;48.868;9.996;2022-12-10T01:51:18;25.65;;;9.15;;
25079;SDS011;13071;48.868;9.996;2022-12-10T01:53:45;26.27;;;9.63;;
25079;SDS011;13071;48.868;9.996;2022-12-10T01:56:12;19.77;;;7.82;;
25079;SDS011;13071;48.868;9.996;2022-12-10T01:58:41;26.55;;;8.73;;
25079;SDS011;13071;48.868;9.996;2022-12-10T02:01:08;25.02;;;9.48;;
25079;SDS011;13071;48.868;9.996;2022-12-10T02:03:44;22.10;;;8.88;;
25079;SDS011;13071;48.868;9.996;2022-12-10T02:06:25;19.33;;;8.20;;
25079;SDS011;13071;48.868;9.996;2022-12-10T02:09:05;22.85;;;8.27;;
25079;SDS011;13071;48.868;9.996;2022-12-10T02:11:40;29.73;;;9.23;;
25079;SDS011;13071;48.868;9.996;2022-12-10T02:14:12;23.85;;;9.18;;
25079;SDS011;13071;48.868;9.996;2022-12-10T02:16:44;25.85;;;8.95;;
25079;SDS011;13071;48.868;9.996;2022-12-10T02:19:18;26.20;;;8.45;;
25079;SDS011;13071;48.868;9.996;2022-12-10T02:21:52;21.83;;;7.88;;
25079;SDS011;13071;48.868;9.996;2022-12-10T02:24:23;22.23;;;8.98;;
25079;SDS011;13071;48.868;9.996;2022-12-10T02:26:56;26.05;;;9.07;;
25079;SDS011;13071;48.868;9.996;2022-12-10T02:29:29;23.38;;;8.98;;
25079;SDS011;13071;48.868;9.996;2022-12-10T02:31:59;20.67;;;7.72;;
25079;SDS011;13071;48.868;9.996;2022-12-10T02:34:29;26.30;;;8.23;;
25079;SDS011;13071;48.868;9.996;2022-12-10T02:37:00;28.38;;;8.02;;
25079;SDS011;13071;48.868;9.996;2022-12-10T02:39:31;21.50;;;7.53;;
25079;SDS011;13071;48.868;9.996;2022-12-10T02:42:03;22.45;;;9.25;;
25079;SDS011;13071;48.868;9.996;2022-12-10T02:44:32;24.50;;;9.05;;
25079;SDS011;13071;48.868;9.996;2022-12-10T02:47:00;31.90;;;9.48;;
25079;SDS011;13071;48.868;9.996;2022-12-10T02:49:27;21.08;;;8.65;;
25079;SDS011;13071;48.868;9.996;2022-12-10T02:51:56;32.63;;;9.35;;
25079;SDS011;13071;48.868;9.996;2022-12-10T02:54:33;28.58;;;9.77;;
25079;SDS011;13071;48.868;9.996;2022-12-10T02:57:04;30.48;;;9.82;;
25079;SDS011;13071;48.868;9.996;2022-12-10T02:59:40;27.55;;;9.30;;
25079;SDS011;13071;48.868;9.996;2022-12-10T03:02:19;28.08;;;9.00;;
25079;SDS011;13071;48.868;9.996;2022-12-10T03:04:51;26.83;;;9.32;;
25079;SDS011;13071;48.868;9.996;2022-12-10T03:07:25;21.63;;;8.38;;
25079;SDS011;13071;48.868;9.996;2022-12-10T03:09:59;27.55;;;9.48;;
25079;SDS011;13071;48.868;9.996;2022-12-10T03:12:31;24.38;;;8.50;;
25079;SDS011;13071;48.868;9.996;2022-12-10T03:15:05;24.35;;;8.23;;
25079;SDS011;13071;48.868;9.996;2022-12-10T03:17:34;24.33;;;8.50;;
25079;SDS011;13071;48.868;9.996;2022-12-10T03:20:04;23.38;;;8.25;;
25079;SDS011;13071;48.868;9.996;2022-12-10T03:22:34;28.02;;;9.57;;
25079;SDS011;13071;48.868;9.996;2022-12-10T03:25:04;23.15;;;8.40;;
25079;SDS011;13071;48.868;9.996;2022-12-10T03:27:32;26.13;;;9.25;;
25079;SDS011;13071;48.868;9.996;2022-12-10T03:30:00;19.98;;;7.68;;
25079;SDS011;13071;48.868;9.996;2022-12-10T03:32:28;22.58;;;8.25;;
25079;SDS011;13071;48.868;9.996;2022-12-10T03:34:56;23.45;;;9.07;;
25079;SDS011;13071;48.868;9.996;2022-12-10T03:37:25;17.85;;;7.28;;
25079;SDS011;13071;48.868;9.996;2022-12-10T03:39:53;28.45;;;9.35;;
25079;SDS011;13071;48.868;9.996;2022-12-10T03:42:21;28.83;;;8.82;;
25079;SDS011;13071;48.868;9.996;2022-12-10T03:44:49;24.33;;;8.63;;
25079;SDS011;13071;48.868;9.996;2022-12-10T03:47:16;25.48;;;8.35;;
25079;SDS011;13071;48.868;9.996;2022-12-10T03:49:45;26.63;;;8.18;;
25079;SDS011;13071;48.868;9.996;2022-12-10T03:52:12;28.08;;;9.57;;
25079;SDS011;13071;48.868;9.996;2022-12-10T03:54:38;27.00;;;9.05;;
25079;SDS011;13071;48.868;9.996;2022-12-10T03:57:05;25.83;;;8.63;;
25079;SDS011;13071;48.868;9.996;2022-12-10T03:59:32;24.50;;;8.48;;
25079;SDS011;13071;48.868;9.996;2022-12-10T04:01:58;25.77;;;8.57;;
25079;SDS011;13071;48.868;9.996;2022-12-10T04:04:25;20.95;;;8.48;;
25079;SDS011;13071;48.868;9.996;2022-12-10T04:06:53;30.63;;;9.10;;
25079;SDS011;13071;48.868;9.996;2022-12-10T04:09:20;26.60;;;8.88;;
25079;SDS011;13071;48.868;9.996;2022-12-10T04:11:46;25.23;;;8.82;;
25079;SDS011;13071;48.868;9.996;2022-12-10T04:14:13;26.40;;;8.40;;
25079;SDS011;13071;48.868;9.996;2022-12-10T04:16:58;28.95;;;9.13;;
25079;SDS011;13071;48.868;9.996;2022-12-10T04:19:25;32.53;;;9.55;;
25079;SDS011;13071;48.868;9.996;2022-12-10T04:21:53;23.80;;;8.38;;
25079;SDS011;13071;48.868;9.996;2022-12-10T04:24:45;23.60;;;8.00;;
25079;SDS011;13071;48.868;9.996;2022-12-10T04:27:36;23.38;;;8.65;;
25079;SDS011;13071;48.868;9.996;2022-12-10T04:30:05;33.60;;;8.98;;
25079;SDS011;13071;48.868;9.996;2022-12-10T04:32:34;20.58;;;7.35;;
25079;SDS011;13071;48.868;9.996;2022-12-10T04:35:01;25.88;;;8.52;;
25079;SDS011;13071;48.868;9.996;2022-12-10T04:37:29;23.02;;;7.95;;
25079;SDS011;13071;48.868;9.996;2022-12-10T04:39:55;22.35;;;8.52;;
25079;SDS011;13071;48.868;9.996;2022-12-10T04:42:22;22.90;;;8.95;;
25079;SDS011;13071;48.868;9.996;2022-12-10T04:44:49;22.48;;;8.75;;
25079;SDS011;13071;48.868;9.996;2022-12-10T04:47:15;24.85;;;8.80;;
25079;SDS011;13071;48.868;9.996;2022-12-10T04:49:42;25.90;;;8.75;;
25079;SDS011;13071;48.868;9.996;2022-12-10T04:52:10;27.15;;;8.65;;
25079;SDS011;13071;48.868;9.996;2022-12-10T04:54:39;24.02;;;9.07;;
25079;SDS011;13071;48.868;9.996;2022-12-10T04:57:06;26.02;;;8.20;;
25079;SDS011;13071;48.868;9.996;2022-12-10T04:59:34;22.75;;;8.52;;
25079;SDS011;13071;48.868;9.996;2022-12-10T05:02:01;26.25;;;8.75;;
25079;SDS011;13071;48.868;9.996;2022-12-10T05:04:28;25.98;;;10.05;;
25079;SDS011;13071;48.868;9.996;2022-12-10T05:06:54;25.92;;;9.65;;
25079;SDS011;13071;48.868;9.996;2022-12-10T05:09:21;30.40;;;10.05;;
25079;SDS011;13071;48.868;9.996;2022-12-10T05:11:49;21.20;;;7.82;;
25079;SDS011;13071;48.868;9.996;2022-12-10T05:14:16;31.15;;;9.75;;
25079;SDS011;13071;48.868;9.996;2022-12-10T05:16:43;26.60;;;9.05;;
25079;SDS011;13071;48.868;9.996;2022-12-10T05:19:10;28.00;;;9.60;;
25079;SDS011;13071;48.868;9.996;2022-12-10T05:21:37;26.70;;;9.35;;
25079;SDS011;13071;48.868;9.996;2022-12-10T05:24:21;28.77;;;9.38;;
25079;SDS011;13071;48.868;9.996;2022-12-10T05:26:49;24.55;;;8.65;;
25079;SDS011;13071;48.868;9.996;2022-12-10T05:29:16;22.45;;;8.98;;
25079;SDS011;13071;48.868;9.996;2022-12-10T05:31:43;25.08;;;9.90;;
25079;SDS011;13071;48.868;9.996;2022-12-10T05:34:10;22.55;;;8.85;;
25079;SDS011;13071;48.868;9.996;2022-12-10T05:36:37;29.67;;;8.70;;
25079;SDS011;13071;48.868;9.996;2022-12-10T05:39:04;22.98;;;8.23;;
25079;SDS011;13071;48.868;9.996;2022-12-10T05:41:33;24.50;;;8.90;;
25079;SDS011;13071;48.868;9.996;2022-12-10T05:44:03;30.90;;;9.05;;
25079;SDS011;13071;48.868;9.996;2022-12-10T05:46:31;22.23;;;8.32;;
25079;SDS011;13071;48.868;9.996;2022-12-10T05:49:00;22.30;;;8.43;;
25079;SDS011;13071;48.868;9.996;2022-12-10T05:51:29;26.25;;;9.40;;
25079;SDS011;13071;48.868;9.996;2022-12-10T05:53:57;21.85;;;9.13;;
25079;SDS011;13071;48.868;9.996;2022-12-10T05:56:26;25.17;;;9.07;;
25079;SDS011;13071;48.868;9.996;2022-12-10T05:58:53;25.15;;;8.57;;
25079;SDS011;13071;48.868;9.996;2022-12-10T06:01:25;25.50;;;9.05;;
25079;SDS011;13071;48.868;9.996;2022-12-10T06:03:53;21.73;;;9.40;;
25079;SDS011;13071;48.868;9.996;2022-12-10T06:06:22;24.17;;;8.52;;
25079;SDS011;13071;48.868;9.996;2022-12-10T06:08:49;27.55;;;9.13;;
25079;SDS011;13071;48.868;9.996;2022-12-10T06:11:16;26.88;;;8.60;;
25079;SDS011;13071;48.868;9.996;2022-12-10T06:13:43;26.27;;;8.18;;
25079;SDS011;13071;48.868;9.996;2022-12-10T06:16:10;23.10;;;8.40;;
25079;SDS011;13071;48.868;9.996;2022-12-10T06:18:39;24.33;;;8.15;;
25079;SDS011;13071;48.868;9.996;2022-12-10T06:21:07;21.90;;;8.35;;
25079;SDS011;13071;48.868;9.996;2022-12-10T06:23:36;21.08;;;8.60;;
25079;SDS011;13071;48.868;9.996;2022-12-10T06:26:04;26.98;;;9.32;;
25079;SDS011;13071;48.868;9.996;2022-12-10T06:28:31;26.65;;;8.85;;
25079;SDS011;13071;48.868;9.996;2022-12-10T06:30:57;28.05;;;9.70;;
25079;SDS011;13071;48.868;9.996;2022-12-10T06:33:24;23.75;;;10.23;;
25079;SDS011;13071;48.868;9.996;2022-12-10T06:35:52;30.10;;;8.05;;
25079;SDS011;13071;48.868;9.996;2022-12-10T06:38:19;34.00;;;9.52;;
25079;SDS011;13071;48.868;9.996;2022-12-10T06:40:46;27.58;;;9.43;;
25079;SDS011;13071;48.868;9.996;2022-12-10T06:43:13;26.97;;;9.43;;
25079;SDS011;13071;48.868;9.996;2022-12-10T06:45:39;30.40;;;8.98;;
25079;SDS011;13071;48.868;9.996;2022-12-10T06:48:06;33.42;;;8.88;;
25079;SDS011;13071;48.868;9.996;2022-12-10T06:50:33;25.50;;;9.35;;
25079;SDS011;13071;48.868;9.996;2022-12-10T06:53:02;25.35;;;8.82;;
25079;SDS011;13071;48.868;9.996;2022-12-10T06:55:28;24.77;;;9.33;;
25079;SDS011;13071;48.868;9.996;2022-12-10T06:57:55;28.97;;;9.27;;
25079;SDS011;13071;48.868;9.996;2022-12-10T07:00:22;29.10;;;9.13;;
25079;SDS011;13071;48.868;9.996;2022-12-10T07:02:49;24.90;;;9.27;;
25079;SDS011;13071;48.868;9.996;2022-12-10T07:05:15;23.37;;;9.40;;
25079;SDS011;13071;48.868;9.996;2022-12-10T07:07:42;24.25;;;9.27;;
25079;SDS011;13071;48.868;9.996;2022-12-10T07:10:10;22.10;;;7.95;;
25079;SDS011;13071;48.868;9.996;2022-12-10T07:12:37;17.95;;;7.82;;
25079;SDS011;13071;48.868;9.996;2022-12-10T07:15:04;24.42;;;8.73;;
25079;SDS011;13071;48.868;9.996;2022-12-10T07:17:31;26.43;;;9.63;;
25079;SDS011;13071;48.868;9.996;2022-12-10T07:19:58;21.95;;;8.65;;
25079;SDS011;13071;48.868;9.996;2022-12-10T07:22:25;20.67;;;8.13;;
25079;SDS011;13071;48.868;9.996;2022-12-10T07:24:51;19.80;;;7.55;;
25079;SDS011;13071;48.868;9.996;2022-12-10T07:27:19;16.50;;;7.28;;
25079;SDS011;13071;48.868;9.996;2022-12-10T07:29:46;23.60;;;8.35;;
25079;SDS011;13071;48.868;9.996;2022-12-10T07:32:14;25.53;;;10.30;;
25079;SDS011;13071;48.868;9.996;2022-12-10T07:34:41;28.02;;;8.95;;
25079;SDS011;13071;48.868;9.996;2022-12-10T07:37:07;25.60;;;9.13;;
25079;SDS011;13071;48.868;9.996;2022-12-10T07:39:34;28.77;;;9.93;;
25079;SDS011;13071;48.868;9.996;2022-12-10T07:42:01;21.80;;;8.57;;
25079;SDS011;13071;48.868;9.996;2022-12-10T07:44:29;27.87;;;9.43;;
25079;SDS011;13071;48.868;9.996;2022-12-10T07:46:56;22.38;;;8.13;;
25079;SDS011;13071;48.868;9.996;2022-12-10T07:49:23;25.80;;;9.37;;
25079;SDS011;13071;48.868;9.996;2022-12-10T07:51:50;32.73;;;9.77;;
25079;SDS011;13071;48.868;9.996;2022-12-10T07:54:17;33.23;;;8.93;;
25079;SDS011;13071;48.868;9.996;2022-12-10T07:56:45;25.48;;;9.23;;
25079;SDS011;13071;48.868;9.996;2022-12-10T07:59:11;26.17;;;9.80;;
25079;SDS011;13071;48.868;9.996;2022-12-10T08:01:40;23.47;;;9.47;;
25079;SDS011;13071;48.868;9.996;2022-12-10T08:04:07;23.83;;;8.53;;
25079;SDS011;13071;48.868;9.996;2022-12-10T08:06:34;28.90;;;9.35;;
25079;SDS011;13071;48.868;9.996;2022-12-10T08:09:01;29.42;;;11.02;;
25079;SDS011;13071;48.868;9.996;2022-12-10T08:11:28;28.23;;;9.77;;
25079;SDS011;13071;48.868;9.996;2022-12-10T08:13:54;22.45;;;9.40;;
25079;SDS011;13071;48.868;9.996;2022-12-10T08:16:22;30.77;;;10.03;;
25079;SDS011;13071;48.868;9.996;2022-12-10T08:18:52;31.83;;;10.57;;
25079;SDS011;13071;48.868;9.996;2022-12-10T08:21:21;34.90;;;9.93;;
25079;SDS011;13071;48.868;9.996;2022-12-10T08:23:48;31.03;;;9.53;;
25079;SDS011;13071;48.868;9.996;2022-12-10T08:26:16;27.40;;;9.27;;
25079;SDS011;13071;48.868;9.996;2022-12-10T08:28:43;32.40;;;10.47;;
25079;SDS011;13071;48.868;9.996;2022-12-10T08:31:11;35.65;;;11.10;;
25079;SDS011;13071;48.868;9.996;2022-12-10T08:33:39;25.77;;;9.33;;
25079;SDS011;13071;48.868;9.996;2022-12-10T08:36:10;30.93;;;10.33;;
25079;SDS011;13071;48.868;9.996;2022-12-10T08:38:38;25.80;;;10.30;;
25079;SDS011;13071;48.868;9.996;2022-12-10T08:41:05;29.17;;;9.60;;
25079;SDS011;13071;48.868;9.996;2022-12-10T08:43:33;30.00;;;10.53;;
25079;SDS011;13071;48.868;9.996;2022-12-10T08:46:00;36.60;;;10.00;;
25079;SDS011;13071;48.868;9.996;2022-12-10T08:48:28;26.97;;;9.33;;
25079;SDS011;13071;48.868;9.996;2022-12-10T08:50:55;27.70;;;9.98;;
25079;SDS011;13071;48.868;9.996;2022-12-10T08:53:23;26.05;;;10.10;;
25079;SDS011;13071;48.868;9.996;2022-12-10T08:55:50;32.88;;;10.43;;
25079;SDS011;13071;48.868;9.996;2022-12-10T08:58:17;28.27;;;9.32;;
25079;SDS011;13071;48.868;9.996;2022-12-10T09:00:43;26.13;;;9.55;;
25079;SDS011;13071;48.868;9.996;2022-12-10T09:03:10;30.95;;;10.15;;
25079;SDS011;13071;48.868;9.996;2022-12-10T09:05:37;37.20;;;11.98;;
25079;SDS011;13071;48.868;9.996;2022-12-10T09:08:04;31.80;;;8.93;;
25079;SDS011;13071;48.868;9.996;2022-12-10T09:10:32;31.50;;;10.48;;
25079;SDS011;13071;48.868;9.996;2022-12-10T09:12:59;28.60;;;9.52;;
25079;SDS011;13071;48.868;9.996;2022-12-10T09:15:25;29.25;;;10.82;;
25079;SDS011;13071;48.868;9.996;2022-12-10T09:17:52;32.38;;;11.25;;
25079;SDS011;13071;48.868;9.996;2022-12-10T09:20:18;30.35;;;10.77;;
25079;SDS011;13071;48.868;9.996;2022-12-10T09:22:45;27.58;;;10.20;;
25079;SDS011;13071;48.868;9.996;2022-12-10T09:25:12;34.37;;;11.20;;
25079;SDS011;13071;48.868;9.996;2022-12-10T09:27:41;31.17;;;10.30;;
25079;SDS011;13071;48.868;9.996;2022-12-10T09:30:08;26.92;;;10.32;;
25079;SDS011;13071;48.868;9.996;2022-12-10T09:32:36;26.55;;;10.45;;
25079;SDS011;13071;48.868;9.996;2022-12-10T09:35:03;26.88;;;10.05;;
25079;SDS011;13071;48.868;9.996;2022-12-10T09:37:30;28.95;;;9.35;;
25079;SDS011;13071;48.868;9.996;2022-12-10T09:39:57;28.08;;;10.57;;
25079;SDS011;13071;48.868;9.996;2022-12-10T09:42:27;30.35;;;10.18;;
25079;SDS011;13071;48.868;9.996;2022-12-10T09:45:03;29.17;;;9.13;;
25079;SDS011;13071;48.868;9.996;2022-12-10T09:47:43;27.08;;;9.05;;
25079;SDS011;13071;48.868;9.996;2022-12-10T09:50:16;27.95;;;8.95;;
25079;SDS011;13071;48.868;9.996;2022-12-10T09:52:47;28.08;;;10.00;;
25079;SDS011;13071;48.868;9.996;2022-12-10T09:55:17;30.27;;;9.48;;
25079;SDS011;13071;48.868;9.996;2022-12-10T09:57:47;34.03;;;11.02;;
25079;SDS011;13071;48.868;9.996;2022-12-10T10:00:22;24.30;;;9.13;;
25079;SDS011;13071;48.868;9.996;2022-12-10T10:02:52;27.13;;;9.90;;
25079;SDS011;13071;48.868;9.996;2022-12-10T10:05:24;25.45;;;9.05;;
25079;SDS011;13071;48.868;9.996;2022-12-10T10:07:54;30.80;;;11.10;;
25079;SDS011;13071;48.868;9.996;2022-12-10T10:10:24;25.63;;;9.43;;
25079;SDS011;13071;48.868;9.996;2022-12-10T10:12:54;31.25;;;10.13;;
25079;SDS011;13071;48.868;9.996;2022-12-10T10:15:26;27.30;;;10.20;;
25079;SDS011;13071;48.868;9.996;2022-12-10T10:17:56;33.30;;;10.20;;
25079;SDS011;13071;48.868;9.996;2022-12-10T10:20:28;28.52;;;10.07;;
25079;SDS011;13071;48.868;9.996;2022-12-10T10:22:55;28.45;;;9.65;;
25079;SDS011;13071;48.868;9.996;2022-12-10T10:25:25;26.67;;;8.45;;
25079;SDS011;13071;48.868;9.996;2022-12-10T10:27:53;29.23;;;9.45;;
25079;SDS011;13071;48.868;9.996;2022-12-10T10:30:21;30.00;;;10.63;;
25079;SDS011;13071;48.868;9.996;2022-12-10T10:32:51;21.67;;;7.70;;
25079;SDS011;13071;48.868;9.996;2022-12-10T10:35:20;23.27;;;8.63;;
25079;SDS011;13071;48.868;9.996;2022-12-10T10:37:52;25.23;;;9.20;;
25079;SDS011;13071;48.868;9.996;2022-12-10T10:40:25;27.30;;;9.13;;
25079;SDS011;13071;48.868;9.996;2022-12-10T10:42:55;24.80;;;9.00;;
25079;SDS011;13071;48.868;9.996;2022-12-10T10:45:32;27.20;;;8.88;;
25079;SDS011;13071;48.868;9.996;2022-12-10T10:48:06;32.22;;;9.30;;
25079;SDS011;13071;48.868;9.996;2022-12-10T10:50:37;29.95;;;10.05;;
25079;SDS011;13071;48.868;9.996;2022-12-10T10:53:19;26.42;;;9.55;;
25079;SDS011;13071;48.868;9.996;2022-12-10T10:55:48;22.23;;;8.35;;
25079;SDS011;13071;48.868;9.996;2022-12-10T10:58:17;26.67;;;9.90;;
25079;SDS011;13071;48.868;9.996;2022-12-10T11:00:52;25.50;;;9.82;;
25079;SDS011;13071;48.868;9.996;2022-12-10T11:03:25;27.10;;;9.90;;
25079;SDS011;13071;48.868;9.996;2022-12-10T11:05:54;25.13;;;9.02;;
25079;SDS011;13071;48.868;9.996;2022-12-10T11:08:23;25.75;;;10.18;;
25079;SDS011;13071;48.868;9.996;2022-12-10T11:10:55;29.00;;;9.77;;
25079;SDS011;13071;48.868;9.996;2022-12-10T11:13:27;27.52;;;9.63;;
25079;SDS011;13071;48.868;9.996;2022-12-10T11:15:56;31.52;;;11.35;;
25079;SDS011;13071;48.868;9.996;2022-12-10T11:18:30;26.92;;;9.63;;
25079;SDS011;13071;48.868;9.996;2022-12-10T11:21:00;29.52;;;10.52;;
25079;SDS011;13071;48.868;9.996;2022-12-10T11:23:29;32.15;;;9.85;;
25079;SDS011;13071;48.868;9.996;2022-12-10T11:26:04;30.15;;;10.50;;
25079;SDS011;13071;48.868;9.996;2022-12-10T11:28:40;28.90;;;10.43;;
25079;SDS011;13071;48.868;9.996;2022-12-10T11:31:21;27.42;;;9.57;;
25079;SDS011;13071;48.868;9.996;2022-12-10T11:33:58;26.05;;;10.20;;
25079;SDS011;13071;48.868;9.996;2022-12-10T11:36:32;30.75;;;10.57;;
25079;SDS011;13071;48.868;9.996;2022-12-10T11:39:07;32.90;;;9.68;;
25079;SDS011;13071;48.868;9.996;2022-12-10T11:41:43;29.08;;;9.93;;
25079;SDS011;13071;48.868;9.996;2022-12-10T11:44:17;25.00;;;9.88;;
25079;SDS011;13071;48.868;9.996;2022-12-10T11:46:59;26.65;;;9.48;;
25079;SDS011;13071;48.868;9.996;2022-12-10T11:49:41;28.83;;;10.57;;
25079;SDS011;13071;48.868;9.996;2022-12-10T11:52:25;29.05;;;10.93;;
25079;SDS011;13071;48.868;9.996;2022-12-10T11:55:07;27.98;;;9.30;;
25079;SDS011;13071;48.868;9.996;2022-12-10T11:57:47;36.42;;;12.48;;
25079;SDS011;13071;48.868;9.996;2022-12-10T12:00:19;31.35;;;9.93;;
25079;SDS011;13071;48.868;9.996;2022-12-10T12:02:53;32.60;;;11.20;;
25079;SDS011;13071;48.868;9.996;2022-12-10T12:05:51;28.90;;;10.20;;
25079;SDS011;13071;48.868;9.996;2022-12-10T12:08:29;27.50;;;10.02;;
25079;SDS011;13071;48.868;9.996;2022-12-10T12:11:09;32.17;;;11.63;;
25079;SDS011;13071;48.868;9.996;2022-12-10T12:13:50;33.13;;;11.47;;
25079;SDS011;13071;48.868;9.996;2022-12-10T12:16:23;29.80;;;10.93;;
25079;SDS011;13071;48.868;9.996;2022-12-10T12:18:55;35.30;;;11.00;;
25079;SDS011;13071;48.868;9.996;2022-12-10T12:21:27;31.67;;;11.77;;
25079;SDS011;13071;48.868;9.996;2022-12-10T12:23:54;31.87;;;10.60;;
25079;SDS011;13071;48.868;9.996;2022-12-10T12:26:26;31.92;;;11.38;;
25079;SDS011;13071;48.868;9.996;2022-12-10T12:28:56;28.17;;;10.15;;
25079;SDS011;13071;48.868;9.996;2022-12-10T12:31:31;30.70;;;10.93;;
25079;SDS011;13071;48.868;9.996;2022-12-10T12:34:03;25.17;;;10.07;;
25079;SDS011;13071;48.868;9.996;2022-12-10T12:36:38;34.00;;;10.63;;
25079;SDS011;13071;48.868;9.996;2022-12-10T12:39:07;31.85;;;11.70;;
25079;SDS011;13071;48.868;9.996;2022-12-10T12:41:43;26.90;;;9.65;;
25079;SDS011;13071;48.868;9.996;2022-12-10T12:44:17;32.25;;;10.50;;
25079;SDS011;13071;48.868;9.996;2022-12-10T12:46:49;29.38;;;9.77;;
25079;SDS011;13071;48.868;9.996;2022-12-10T12:49:18;24.63;;;10.02;;
25079;SDS011;13071;48.868;9.996;2022-12-10T12:51:52;27.48;;;9.70;;
25079;SDS011;13071;48.868;9.996;2022-12-10T12:54:22;36.80;;;10.40;;
25079;SDS011;13071;48.868;9.996;2022-12-10T12:56:53;29.80;;;10.43;;
25079;SDS011;13071;48.868;9.996;2022-12-10T12:59:26;30.95;;;10.93;;
25079;SDS011;13071;48.868;9.996;2022-12-10T13:02:17;32.30;;;10.60;;
25079;SDS011;13071;48.868;9.996;2022-12-10T13:04:50;30.33;;;10.35;;
25079;SDS011;13071;48.868;9.996;2022-12-10T13:07:29;31.73;;;10.30;;
25079;SDS011;13071;48.868;9.996;2022-12-10T13:12:52;31.85;;;10.35;;
25079;SDS011;13071;48.868;9.996;2022-12-10T13:15:33;29.95;;;9.65;;
25079;SDS011;13071;48.868;9.996;2022-12-10T13:20:47;37.50;;;11.25;;
25079;SDS011;13071;48.868;9.996;2022-12-10T13:23:30;33.10;;;11.10;;
25079;SDS011;13071;48.868;9.996;2022-12-10T13:26:00;24.67;;;10.10;;
25079;SDS011;13071;48.868;9.996;2022-12-10T13:28:51;34.90;;;12.20;;
25079;SDS011;13071;48.868;9.996;2022-12-10T13:31:21;36.13;;;11.75;;
25079;SDS011;13071;48.868;9.996;2022-12-10T13:34:10;28.15;;;10.52;;
25079;SDS011;13071;48.868;9.996;2022-12-10T13:37:04;34.53;;;11.47;;
25079;SDS011;13071;48.868;9.996;2022-12-10T13:39:46;30.97;;;10.37;;
25079;SDS011;13071;48.868;9.996;2022-12-10T13:42:22;32.80;;;11.07;;
25079;SDS011;13071;48.868;9.996;2022-12-10T13:45:24;30.67;;;10.60;;
25079;SDS011;13071;48.868;9.996;2022-12-10T13:47:55;31.73;;;10.77;;
25079;SDS011;13071;48.868;9.996;2022-12-10T13:51:21;38.50;;;12.75;;
25079;SDS011;13071;48.868;9.996;2022-12-10T13:54:04;37.70;;;11.63;;
25079;SDS011;13071;48.868;9.996;2022-12-10T13:56:51;32.80;;;11.83;;
25079;SDS011;13071;48.868;9.996;2022-12-10T13:59:28;30.70;;;10.87;;
25079;SDS011;13071;48.868;9.996;2022-12-10T14:02:13;33.90;;;11.43;;
25079;SDS011;13071;48.868;9.996;2022-12-10T14:05:01;40.90;;;12.20;;
25079;SDS011;13071;48.868;9.996;2022-12-10T14:07:39;37.93;;;11.23;;
25079;SDS011;13071;48.868;9.996;2022-12-10T14:10:10;30.90;;;12.17;;
25079;SDS011;13071;48.868;9.996;2022-12-10T14:12:43;28.30;;;10.43;;
25079;SDS011;13071;48.868;9.996;2022-12-10T14:15:14;35.70;;;10.47;;
25079;SDS011;13071;48.868;9.996;2022-12-10T14:17:46;31.07;;;11.17;;
25079;SDS011;13071;48.868;9.996;2022-12-10T14:20:16;33.60;;;10.43;;
25079;SDS011;13071;48.868;9.996;2022-12-10T14:22:46;35.63;;;11.37;;
25079;SDS011;13071;48.868;9.996;2022-12-10T14:25:15;32.13;;;10.00;;
25079;SDS011;13071;48.868;9.996;2022-12-10T14:27:45;34.70;;;12.00;;
25079;SDS011;13071;48.868;9.996;2022-12-10T14:30:17;33.97;;;11.47;;
25079;SDS011;13071;48.868;9.996;2022-12-10T14:32:45;33.50;;;12.30;;
25079;SDS011;13071;48.868;9.996;2022-12-10T14:35:13;36.93;;;12.70;;
25079;SDS011;13071;48.868;9.996;2022-12-10T14:37:43;34.93;;;12.70;;
25079;SDS011;13071;48.868;9.996;2022-12-10T14:40:17;33.57;;;11.53;;
25079;SDS011;13071;48.868;9.996;2022-12-10T14:42:49;33.23;;;9.87;;
25079;SDS011;13071;48.868;9.996;2022-12-10T14:45:16;32.87;;;11.20;;
25079;SDS011;13071;48.868;9.996;2022-12-10T14:47:43;27.23;;;9.83;;
25079;SDS011;13071;48.868;9.996;2022-12-10T14:50:11;29.23;;;9.97;;
25079;SDS011;13071;48.868;9.996;2022-12-10T14:52:40;35.23;;;9.50;;
25079;SDS011;13071;48.868;9.996;2022-12-10T14:55:11;33.47;;;9.93;;